Hovedside
METAR-TAF:

METAR-TAF

Lufthavner :

Roskilde lufthavn

Roskilde, Danmark

breddegrad: 55-35N, lengdegrad: 012-08E, høyde over havet: 44 m

Gjeldene værobservasjon

Denne rapporten ble laget for 21 minutter siden, klokken 06:50 UTC
Vind 19 kt fra Øst-sørøst med vindkast opp mot 29 kt
Temperatur 11°C
Luftfuktighet 62%
Trykk 1019 hPa
Sikt 10 km eller mer

METAR: EKRK 230650Z AUTO 11019G29KT 9999NDV NCD 11/04 Q1019

Tid: 09:11 (07:11 UTC)

Varsel

Denne rapporten ble laget for 1 time og 47 minutter siden, klokken 05:24 UTC
Varsel gyldig fra 23. klokken 06 UTC til 23. klokken 15 UTC
Vind 15 kt fra Øst-sørøst
Sikt 10 km eller mer
ingen skyer under 1500 m og ingen bygeskyer
Blir
fra 23. klokken 06 UTC til 23. klokken 08 UTC
Vind 20 kt fra Øst-sørøst med vindkast opp mot 30 kt
Midlertidig
fra 23. klokken 08 UTC til 23. klokken 15 UTC
Vind 25 kt fra Øst-sørøst med vindkast opp mot 42 kt

TAF: EKRK 230524Z 2306/2315 11015KT CAVOK BECMG 2306/2308 12020G30KT TEMPO 2308/2315 11025G42KT

Værobservasjoner og værvarsel for over 4000 flyplasser (METAR- og TAF-rapporter).

Tilgjengelige stasjoner er representert av de røde og gule prikkene på kartet.

Hold musepekeren over prikken for å se navnet på stasjonen.

Klikk så for å se værobservasjoner og -varsler.

For å forandre kartet kan du klikke på den grønne knappen med svart kryss for å zoome inn, på den grønne knappen med strek for å zoome ut, eller på de grønne pilene for å se tilstøtende kart.


METAR-TAF: